createdAt,value
2023-06-20T00:01:10.505Z,21.38
2023-06-20T00:03:37.251Z,21.40
2023-06-20T00:06:03.974Z,21.38
2023-06-20T00:08:33.172Z,21.42
2023-06-20T00:11:02.299Z,21.47
2023-06-20T00:13:31.316Z,21.48
2023-06-20T00:16:03.815Z,21.41
2023-06-20T00:18:30.786Z,21.37
2023-06-20T00:20:57.480Z,21.31
2023-06-20T00:23:26.241Z,21.21
2023-06-20T00:25:55.629Z,21.14
2023-06-20T00:28:24.766Z,21.12
2023-06-20T00:30:51.732Z,21.05
2023-06-20T00:33:21.417Z,21.02
2023-06-20T00:35:48.043Z,20.99
2023-06-20T00:38:14.617Z,20.94
2023-06-20T00:40:44.996Z,20.90
2023-06-20T00:43:20.136Z,20.86
2023-06-20T00:45:51.764Z,20.82
2023-06-20T00:48:18.496Z,20.78
2023-06-20T00:50:47.568Z,20.80
2023-06-20T00:53:15.180Z,20.82
2023-06-20T00:55:42.178Z,20.87
2023-06-20T00:58:11.176Z,20.94
2023-06-20T01:00:40.030Z,20.92
2023-06-20T01:03:08.413Z,20.91
2023-06-20T01:05:35.414Z,20.87
2023-06-20T01:08:07.344Z,20.83
2023-06-20T01:10:52.980Z,20.79
2023-06-20T01:13:38.540Z,20.74
2023-06-20T01:16:07.287Z,20.55
2023-06-20T01:18:44.909Z,20.48
2023-06-20T01:21:18.841Z,20.47
2023-06-20T01:24:12.092Z,20.47
2023-06-20T01:27:05.263Z,20.41
2023-06-20T01:29:52.283Z,20.44
2023-06-20T01:32:21.487Z,20.32
2023-06-20T01:34:58.349Z,20.09
2023-06-20T01:37:25.065Z,20.02
2023-06-20T01:39:52.689Z,20.05
2023-06-20T01:42:24.732Z,20.07
2023-06-20T01:44:52.861Z,19.91
2023-06-20T01:47:19.507Z,19.79
2023-06-20T01:49:47.473Z,19.84
2023-06-20T01:52:15.734Z,19.92
2023-06-20T01:54:42.428Z,19.91
2023-06-20T01:57:11.401Z,19.94
2023-06-20T01:59:41.859Z,20.01
2023-06-20T02:02:08.584Z,20.01
2023-06-20T02:04:35.626Z,20.01
2023-06-20T02:07:04.097Z,20.04
2023-06-20T02:09:30.779Z,20.04
2023-06-20T02:11:57.917Z,20.02
2023-06-20T02:14:27.957Z,20.01
2023-06-20T02:16:57.589Z,19.99
2023-06-20T02:19:27.152Z,20.02
2023-06-20T02:21:54.294Z,19.99
2023-06-20T02:24:23.731Z,19.97
2023-06-20T02:26:52.977Z,19.98
2023-06-20T02:29:22.433Z,19.94
2023-06-20T02:31:49.482Z,19.88
2023-06-20T02:34:16.623Z,19.78
2023-06-20T02:36:43.577Z,19.77
2023-06-20T02:39:15.265Z,19.77
2023-06-20T02:41:44.626Z,19.80
2023-06-20T02:44:11.312Z,19.85
2023-06-20T02:46:41.538Z,19.84
2023-06-20T02:49:26.141Z,19.85
2023-06-20T02:52:02.236Z,19.85
2023-06-20T02:54:30.929Z,19.85
2023-06-20T02:57:00.702Z,19.82
2023-06-20T02:59:27.637Z,19.72
2023-06-20T03:01:57.545Z,19.65
2023-06-20T03:04:25.878Z,19.55
2023-06-20T03:06:52.895Z,19.52
2023-06-20T03:09:20.927Z,19.52
2023-06-20T03:11:48.018Z,19.60
2023-06-20T03:14:15.364Z,19.70
2023-06-20T03:16:47.989Z,19.79
2023-06-20T03:19:14.832Z,19.79
2023-06-20T03:21:42.757Z,19.82
2023-06-20T03:24:12.116Z,19.75
2023-06-20T03:26:42.391Z,19.74
2023-06-20T03:29:10.594Z,19.78
2023-06-20T03:31:41.164Z,19.83
2023-06-20T03:34:10.528Z,19.87
2023-06-20T03:36:39.439Z,19.86
2023-06-20T03:39:06.485Z,19.84
2023-06-20T03:41:35.728Z,19.86
2023-06-20T03:44:06.668Z,19.84
2023-06-20T03:46:33.532Z,19.93
2023-06-20T03:49:01.035Z,19.99
2023-06-20T03:51:31.113Z,20.04
2023-06-20T03:54:01.753Z,19.98
2023-06-20T03:56:28.422Z,20.00
2023-06-20T03:58:58.333Z,20.00
2023-06-20T04:01:25.775Z,20.04
2023-06-20T04:03:54.928Z,20.06
2023-06-20T04:06:31.164Z,20.11
2023-06-20T04:08:59.484Z,20.18
2023-06-20T04:11:28.704Z,20.20
2023-06-20T04:13:59.648Z,20.19
2023-06-20T04:16:28.734Z,20.28
2023-06-20T04:18:55.342Z,20.37
2023-06-20T04:21:25.270Z,20.48
2023-06-20T04:24:06.107Z,20.57
2023-06-20T04:26:33.465Z,20.53
2023-06-20T04:29:00.133Z,20.59
2023-06-20T04:31:30.650Z,20.67
2023-06-20T04:34:01.230Z,20.75
2023-06-20T04:36:29.989Z,20.74
2023-06-20T04:38:59.818Z,20.82
2023-06-20T04:41:26.601Z,20.88
2023-06-20T04:43:55.536Z,20.91
2023-06-20T04:46:25.532Z,20.90
2023-06-20T04:48:52.327Z,21.00
2023-06-20T04:51:23.068Z,21.02
2023-06-20T04:53:54.453Z,20.99
2023-06-20T04:56:23.453Z,21.07
2023-06-20T04:58:51.145Z,21.08
2023-06-20T05:01:18.003Z,21.08
2023-06-20T05:03:48.942Z,21.05
2023-06-20T05:06:18.481Z,21.17
2023-06-20T05:08:47.843Z,21.18
2023-06-20T05:11:14.634Z,21.18
2023-06-20T05:13:43.843Z,21.23
2023-06-20T05:16:13.612Z,21.36
2023-06-20T05:18:41.866Z,21.46
2023-06-20T05:21:10.060Z,21.50
2023-06-20T05:23:36.660Z,21.57
2023-06-20T05:26:03.344Z,21.63
2023-06-20T05:28:30.076Z,21.69
2023-06-20T05:30:56.755Z,21.74
2023-06-20T05:33:23.406Z,21.76
2023-06-20T05:35:50.088Z,21.77
2023-06-20T05:38:21.714Z,21.80
2023-06-20T05:40:51.025Z,21.88
2023-06-20T05:43:18.188Z,21.86
2023-06-20T05:45:45.002Z,21.95
2023-06-20T05:48:14.082Z,22.00
2023-06-20T05:50:47.571Z,22.01
2023-06-20T05:53:14.241Z,22.05
2023-06-20T05:55:44.277Z,22.13
2023-06-20T05:58:10.989Z,22.14
2023-06-20T06:00:37.772Z,22.17
2023-06-20T06:03:07.024Z,22.19
2023-06-20T06:05:36.826Z,22.21
2023-06-20T06:08:04.085Z,22.23
2023-06-20T06:10:30.773Z,22.29
2023-06-20T06:12:57.899Z,22.37
2023-06-20T06:15:24.863Z,22.39
2023-06-20T06:17:51.528Z,22.39
2023-06-20T06:20:20.433Z,22.42
2023-06-20T06:22:52.668Z,22.49
2023-06-20T06:25:19.392Z,22.60
2023-06-20T06:27:46.172Z,22.67
2023-06-20T06:30:16.657Z,22.77
2023-06-20T06:32:49.126Z,22.88
2023-06-20T06:35:16.618Z,23.01
2023-06-20T06:37:50.604Z,23.15
2023-06-20T06:40:21.496Z,23.30
2023-06-20T06:42:48.243Z,23.35
2023-06-20T06:45:14.991Z,23.34
2023-06-20T06:47:41.664Z,23.38
2023-06-20T06:50:08.531Z,23.46
2023-06-20T06:52:38.004Z,23.58
2023-06-20T06:55:09.948Z,23.64
2023-06-20T06:57:38.988Z,23.76
2023-06-20T07:00:12.484Z,23.83
2023-06-20T07:02:43.166Z,23.88
2023-06-20T07:05:10.423Z,23.93
2023-06-20T07:07:37.040Z,24.00
2023-06-20T07:10:03.844Z,24.06
2023-06-20T07:12:35.313Z,24.08
2023-06-20T07:15:05.435Z,24.08
2023-06-20T07:17:35.224Z,24.09
2023-06-20T07:20:01.858Z,24.09
2023-06-20T07:22:28.963Z,24.12
2023-06-20T07:24:57.290Z,24.13
2023-06-20T07:27:29.582Z,23.91
2023-06-20T07:30:00.091Z,24.18
2023-06-20T07:32:29.223Z,24.18
2023-06-20T07:34:55.831Z,24.25
2023-06-20T07:37:25.803Z,24.35
2023-06-20T07:39:52.528Z,24.49
2023-06-20T07:42:21.433Z,24.52
2023-06-20T07:44:48.155Z,24.59
2023-06-20T07:47:14.744Z,24.67
2023-06-20T07:49:41.658Z,24.75
2023-06-20T07:52:10.698Z,24.88
2023-06-20T07:54:37.442Z,25.02
2023-06-20T07:57:06.790Z,25.16
2023-06-20T07:59:38.097Z,25.26
2023-06-20T08:02:07.192Z,25.30
2023-06-20T08:04:38.851Z,25.27
2023-06-20T08:07:05.587Z,25.33
2023-06-20T08:09:34.743Z,25.41
2023-06-20T08:12:03.909Z,25.53
2023-06-20T08:14:30.767Z,25.66
2023-06-20T08:16:59.891Z,25.74
2023-06-20T08:19:26.526Z,25.92
2023-06-20T08:21:53.234Z,26.09
2023-06-20T08:24:19.945Z,26.25
2023-06-20T08:26:46.944Z,26.35
2023-06-20T08:29:13.655Z,26.45
2023-06-20T08:31:47.791Z,26.55
2023-06-20T08:34:16.922Z,26.64
2023-06-20T08:36:44.710Z,26.66
2023-06-20T08:39:11.474Z,26.61
2023-06-20T08:41:46.361Z,26.62
2023-06-20T08:44:17.721Z,26.68
2023-06-20T08:46:46.599Z,26.75
2023-06-20T08:49:15.868Z,26.80
2023-06-20T08:51:47.072Z,26.98
2023-06-20T08:54:15.285Z,27.20
2023-06-20T08:56:42.072Z,27.39
2023-06-20T08:59:11.158Z,27.55
2023-06-20T09:01:43.491Z,27.60
2023-06-20T09:04:12.208Z,27.76
2023-06-20T09:06:41.345Z,27.88
2023-06-20T09:09:08.501Z,27.79
2023-06-20T09:11:38.507Z,27.76
2023-06-20T09:14:05.508Z,27.90
2023-06-20T09:16:34.770Z,28.13
2023-06-20T09:19:04.561Z,28.32
2023-06-20T09:21:36.817Z,28.41
2023-06-20T09:24:09.625Z,28.64
2023-06-20T09:26:44.941Z,28.84
2023-06-20T09:29:16.557Z,28.97
2023-06-20T09:31:46.792Z,29.01
2023-06-20T09:34:16.915Z,29.10
2023-06-20T09:36:48.918Z,29.25
2023-06-20T09:39:21.850Z,29.42
2023-06-20T09:41:50.651Z,29.49
2023-06-20T09:44:20.939Z,29.62
2023-06-20T09:46:50.560Z,29.73
2023-06-20T09:49:17.795Z,29.84
2023-06-20T09:51:50.906Z,29.99
2023-06-20T09:54:36.498Z,30.04
2023-06-20T09:57:12.205Z,30.23
2023-06-20T09:59:42.009Z,30.37
2023-06-20T10:02:08.971Z,30.45
2023-06-20T10:04:44.247Z,30.43
2023-06-20T10:07:14.956Z,30.49
2023-06-20T10:09:42.569Z,30.60
2023-06-20T10:12:11.981Z,30.74
2023-06-20T10:14:42.105Z,30.87
2023-06-20T10:17:09.143Z,30.80
2023-06-20T10:19:48.915Z,30.85
2023-06-20T10:22:18.281Z,30.86
2023-06-20T10:24:48.170Z,31.07
2023-06-20T10:27:24.185Z,31.20
2023-06-20T10:29:52.421Z,31.17
2023-06-20T10:32:19.147Z,31.42
2023-06-20T10:34:49.198Z,31.48
2023-06-20T10:37:16.653Z,31.59
2023-06-20T10:39:56.372Z,31.94
2023-06-20T10:42:42.434Z,32.08
2023-06-20T10:45:22.711Z,32.19
2023-06-20T10:47:49.583Z,32.38
2023-06-20T10:50:18.759Z,32.45
2023-06-20T10:52:46.063Z,32.68
2023-06-20T10:55:26.397Z,32.83
2023-06-20T10:57:53.711Z,33.02
2023-06-20T11:00:28.540Z,32.97
2023-06-20T11:02:58.043Z,32.69
2023-06-20T11:05:28.160Z,32.66
2023-06-20T11:07:58.163Z,33.05
2023-06-20T11:10:34.748Z,33.31
2023-06-20T11:13:04.795Z,33.19
2023-06-20T11:15:34.324Z,33.32
2023-06-20T11:18:02.051Z,33.85
2023-06-20T11:20:31.650Z,34.46
2023-06-20T11:23:03.450Z,34.61
2023-06-20T11:25:33.198Z,34.85
2023-06-20T11:28:06.323Z,35.08
2023-06-20T11:30:36.945Z,35.26
2023-06-20T11:33:06.846Z,34.90
2023-06-20T11:35:40.854Z,34.81
2023-06-20T11:38:07.979Z,34.98
2023-06-20T11:40:37.379Z,35.05
2023-06-20T11:43:04.411Z,35.23
2023-06-20T11:45:31.062Z,35.19
2023-06-20T11:48:10.153Z,35.57
2023-06-20T11:50:44.301Z,36.01
2023-06-20T11:53:22.090Z,36.20
2023-06-20T11:55:50.075Z,36.71
2023-06-20T11:58:19.726Z,37.09
2023-06-20T12:00:48.979Z,37.26
2023-06-20T12:03:16.665Z,37.70
2023-06-20T12:05:43.285Z,37.87
2023-06-20T12:08:12.478Z,38.09
2023-06-20T12:10:47.976Z,38.48
2023-06-20T12:13:16.461Z,38.95
2023-06-20T12:15:46.559Z,38.57
2023-06-20T12:18:19.154Z,37.62
2023-06-20T12:23:24.305Z,38.83
2023-06-20T12:25:50.967Z,39.50
2023-06-20T12:28:19.977Z,39.43
2023-06-20T12:30:49.480Z,40.09
2023-06-20T12:33:16.322Z,41.17
2023-06-20T12:35:45.318Z,42.17
2023-06-20T12:38:11.971Z,43.08
2023-06-20T12:40:44.744Z,44.08
2023-06-20T12:43:14.076Z,44.89
2023-06-20T12:45:43.161Z,45.42
2023-06-20T12:48:12.843Z,45.59
2023-06-20T12:50:39.514Z,45.50
2023-06-20T12:53:06.249Z,45.58
2023-06-20T12:55:33.127Z,45.86
2023-06-20T12:58:00.098Z,46.18
2023-06-20T13:00:29.303Z,46.47
2023-06-20T13:02:56.432Z,47.21
2023-06-20T13:05:23.472Z,47.53
2023-06-20T13:07:52.489Z,46.84
2023-06-20T13:10:24.689Z,46.70
2023-06-20T13:12:52.453Z,46.93
2023-06-20T13:30:16.696Z,48.74
2023-06-20T13:36:50.324Z,49.38
2023-06-20T13:39:17.922Z,49.45
2023-06-20T13:41:46.815Z,49.88
2023-06-20T13:44:16.631Z,49.80
2023-06-20T13:46:44.571Z,49.60
2023-06-20T13:52:04.636Z,49.85
2023-06-20T13:54:31.909Z,49.23
2023-06-20T13:56:58.716Z,49.41
2023-06-20T13:59:30.415Z,49.74
2023-06-20T14:01:57.256Z,48.52
2023-06-20T14:04:24.010Z,48.32
2023-06-20T14:06:53.469Z,48.67
2023-06-20T14:09:24.339Z,48.10
2023-06-20T14:11:53.150Z,48.11
2023-06-20T14:14:20.317Z,47.78
2023-06-20T14:16:47.150Z,46.41
2023-06-20T14:19:13.911Z,43.46
2023-06-20T14:21:44.378Z,41.73
2023-06-20T14:24:11.043Z,42.59
2023-06-20T14:26:37.797Z,42.81
2023-06-20T14:29:04.511Z,42.45
2023-06-20T14:31:33.583Z,41.42
2023-06-20T14:34:00.910Z,39.93
2023-06-20T14:36:31.882Z,41.04
2023-06-20T14:38:58.534Z,43.20
2023-06-20T14:41:25.286Z,44.29
2023-06-20T14:43:52.182Z,44.43
2023-06-20T14:46:19.374Z,45.33
2023-06-20T14:48:50.008Z,45.98
2023-06-20T14:51:21.505Z,46.40
2023-06-20T14:53:48.184Z,46.54
2023-06-20T14:56:14.866Z,46.66
2023-06-20T14:58:44.052Z,47.01
2023-06-20T15:01:11.647Z,47.61
2023-06-20T15:03:38.467Z,46.99
2023-06-20T15:06:05.165Z,45.50
2023-06-20T15:08:32.045Z,45.04
2023-06-20T15:11:01.095Z,44.36
2023-06-20T15:13:29.703Z,44.71
2023-06-20T15:15:56.374Z,45.13
2023-06-20T15:18:23.079Z,46.18
2023-06-20T15:20:52.256Z,46.77
2023-06-20T15:23:18.881Z,47.00
2023-06-20T15:25:45.673Z,46.90
2023-06-20T15:28:12.915Z,45.11
2023-06-20T15:30:44.466Z,44.28
2023-06-20T15:33:11.182Z,42.57
2023-06-20T15:35:42.868Z,41.02
2023-06-20T15:38:12.014Z,40.78
2023-06-20T15:40:42.203Z,41.17
2023-06-20T15:43:11.488Z,41.37
2023-06-20T15:45:40.741Z,41.30
2023-06-20T15:48:12.493Z,41.20
2023-06-20T15:50:39.652Z,39.73
2023-06-20T15:53:07.033Z,38.64
2023-06-20T15:55:33.795Z,37.98
2023-06-20T15:58:02.873Z,37.82
2023-06-20T16:00:31.731Z,37.63
2023-06-20T16:02:58.906Z,37.22
2023-06-20T16:05:28.090Z,36.96
2023-06-20T16:07:54.728Z,36.38
2023-06-20T16:10:21.354Z,36.22
2023-06-20T16:12:48.182Z,35.98
2023-06-20T16:15:17.213Z,36.18
2023-06-20T16:17:44.461Z,36.37
2023-06-20T16:20:16.007Z,36.50
2023-06-20T16:22:45.727Z,36.43
2023-06-20T16:25:14.932Z,36.22
2023-06-20T16:27:41.675Z,36.13
2023-06-20T16:30:11.766Z,35.53
2023-06-20T16:32:43.302Z,35.12
2023-06-20T16:35:10.554Z,35.13
2023-06-20T16:37:37.257Z,34.97
2023-06-20T16:40:15.654Z,34.86
2023-06-20T16:42:45.467Z,34.61
2023-06-20T16:45:37.702Z,34.58
2023-06-20T16:51:00.863Z,34.18
2023-06-20T16:54:01.511Z,34.05
2023-06-20T16:56:41.725Z,33.66
2023-06-20T17:06:43.870Z,33.42
2023-06-20T17:09:15.213Z,33.30
2023-06-20T17:11:42.084Z,33.13
2023-06-20T17:14:08.877Z,33.11
2023-06-20T17:16:37.973Z,33.01
2023-06-20T17:19:07.547Z,32.68
2023-06-20T17:21:42.472Z,32.48
2023-06-20T17:24:14.159Z,32.35
2023-06-20T17:26:42.835Z,32.24
2023-06-20T17:29:12.049Z,32.08
2023-06-20T17:31:40.463Z,32.13
2023-06-20T17:34:10.092Z,32.13
2023-06-20T17:36:39.322Z,32.04
2023-06-20T17:39:10.749Z,32.03
2023-06-20T17:41:37.330Z,31.97
2023-06-20T17:44:07.055Z,31.85
2023-06-20T17:46:51.147Z,31.88
2023-06-20T17:49:32.044Z,31.69
2023-06-20T17:52:01.814Z,31.50
2023-06-20T18:05:10.561Z,30.94
2023-06-20T18:07:43.930Z,30.97
2023-06-20T18:10:13.748Z,31.03
2023-06-20T18:12:42.858Z,30.92
2023-06-20T18:15:09.756Z,30.91
2023-06-20T18:17:36.546Z,30.66
2023-06-20T18:20:03.454Z,30.55
2023-06-20T18:22:30.408Z,30.51
2023-06-20T18:25:01.846Z,30.47
2023-06-20T18:27:28.460Z,30.44
2023-06-20T18:30:00.093Z,30.40
2023-06-20T18:32:26.750Z,30.37
2023-06-20T18:34:53.383Z,30.35
2023-06-20T18:37:24.867Z,30.28
2023-06-20T18:39:51.843Z,30.20
2023-06-20T18:42:21.359Z,30.12
2023-06-20T18:44:50.346Z,30.04
2023-06-20T18:47:17.059Z,29.93
2023-06-20T18:49:43.809Z,29.85
2023-06-20T18:52:18.392Z,29.74
2023-06-20T18:54:46.675Z,29.72
2023-06-20T18:57:15.625Z,29.68
2023-06-20T18:59:42.286Z,29.59
2023-06-20T19:02:12.097Z,29.52
2023-06-20T19:04:41.103Z,29.47
2023-06-20T19:07:07.809Z,29.31
2023-06-20T19:09:40.644Z,29.25
2023-06-20T19:12:07.659Z,29.17
2023-06-20T19:14:34.626Z,29.10
2023-06-20T19:17:01.889Z,29.03
2023-06-20T19:19:28.877Z,28.91
2023-06-20T19:21:55.538Z,28.87
2023-06-20T19:24:24.615Z,28.81
2023-06-20T19:26:53.515Z,28.71
2023-06-20T19:29:21.340Z,28.64
2023-06-20T19:31:47.954Z,28.55
2023-06-20T19:34:16.971Z,28.44
2023-06-20T19:36:43.560Z,28.40
2023-06-20T19:39:10.304Z,28.35
2023-06-20T19:41:36.917Z,28.24
2023-06-20T19:44:06.103Z,28.16
2023-06-20T19:46:34.594Z,28.15
2023-06-20T19:51:55.436Z,27.96
2023-06-20T19:54:23.204Z,27.92
2023-06-20T19:56:54.188Z,27.80
2023-06-20T19:59:21.426Z,27.76
2023-06-20T20:01:48.079Z,27.73
2023-06-20T20:04:23.434Z,27.56
2023-06-20T20:06:51.075Z,27.44
2023-06-20T20:09:20.097Z,27.34
2023-06-20T20:11:50.272Z,27.32
2023-06-20T20:14:16.900Z,27.30
2023-06-20T20:16:43.686Z,27.31
2023-06-20T20:19:17.760Z,27.31
2023-06-20T20:21:44.365Z,27.16
2023-06-20T20:24:13.471Z,27.01
2023-06-20T20:26:42.570Z,26.95
2023-06-20T20:29:09.198Z,26.92
2023-06-20T20:31:43.770Z,26.88
2023-06-20T20:34:12.863Z,26.81
2023-06-20T20:36:39.510Z,26.77
2023-06-20T20:39:06.233Z,26.69
2023-06-20T20:41:33.090Z,26.62
2023-06-20T20:43:59.744Z,26.62
2023-06-20T20:46:28.941Z,26.54
2023-06-20T20:48:59.025Z,26.53
2023-06-20T20:51:26.383Z,26.52
2023-06-20T20:53:53.002Z,26.35
2023-06-20T20:56:22.331Z,26.35
2023-06-20T20:58:49.045Z,26.36
2023-06-20T21:01:15.712Z,26.29
2023-06-20T21:03:45.490Z,26.17
2023-06-20T21:06:14.914Z,26.11
2023-06-20T21:08:41.728Z,26.15
2023-06-20T21:11:08.444Z,26.16
2023-06-20T21:13:37.553Z,26.08
2023-06-20T21:16:04.417Z,26.01
2023-06-20T21:18:31.016Z,25.98
2023-06-20T21:20:57.664Z,26.01
2023-06-20T21:23:24.324Z,26.03
2023-06-20T21:25:53.228Z,26.03
2023-06-20T21:28:24.744Z,26.04
2023-06-20T21:30:55.243Z,26.05
2023-06-20T21:33:24.231Z,26.07
2023-06-20T21:35:54.258Z,26.04
2023-06-20T21:38:20.894Z,26.00
2023-06-20T21:40:48.603Z,25.99
2023-06-20T21:43:20.374Z,25.99
2023-06-20T21:45:47.007Z,25.94
2023-06-20T21:48:13.686Z,25.91
2023-06-20T21:50:41.411Z,25.85
2023-06-20T21:53:08.198Z,25.81
2023-06-20T21:55:37.301Z,25.70
2023-06-20T21:58:06.876Z,25.58
2023-06-20T22:00:34.338Z,25.49
2023-06-20T22:03:01.050Z,25.42
2023-06-20T22:05:27.821Z,25.40
2023-06-20T22:07:54.518Z,25.35
2023-06-20T22:10:21.295Z,25.32
2023-06-20T22:12:48.221Z,25.24
2023-06-20T22:15:17.426Z,25.18
2023-06-20T22:17:46.360Z,25.03
2023-06-20T22:20:15.557Z,24.90
2023-06-20T22:22:42.145Z,24.92
2023-06-20T22:25:11.528Z,24.85
2023-06-20T22:27:38.330Z,24.79
2023-06-20T22:30:05.458Z,24.00
2023-06-20T22:32:32.316Z,24.80
2023-06-20T22:34:58.935Z,24.76
2023-06-20T22:37:27.579Z,24.76
2023-06-20T22:39:54.433Z,24.68
2023-06-20T22:42:21.208Z,24.60
2023-06-20T22:44:47.954Z,24.56
2023-06-20T22:47:14.771Z,24.56
2023-06-20T22:49:47.873Z,24.54
2023-06-20T22:52:16.931Z,24.49
2023-06-20T22:54:48.757Z,24.49
2023-06-20T22:57:17.921Z,24.42
2023-06-20T22:59:44.554Z,24.44
2023-06-20T23:02:13.810Z,24.40
2023-06-20T23:04:40.889Z,24.35
2023-06-20T23:07:07.600Z,24.29
2023-06-20T23:09:34.348Z,24.25
2023-06-20T23:12:01.257Z,24.25
2023-06-20T23:14:27.983Z,24.18
2023-06-20T23:16:59.308Z,24.17
2023-06-20T23:19:32.583Z,24.13
2023-06-20T23:22:01.616Z,24.05
2023-06-20T23:24:28.244Z,24.01
2023-06-20T23:26:58.244Z,23.99
2023-06-20T23:29:27.370Z,23.94
2023-06-20T23:31:54.111Z,23.92
2023-06-20T23:34:20.744Z,23.80
2023-06-20T23:36:49.465Z,23.84
2023-06-20T23:39:16.255Z,23.80
2023-06-20T23:41:42.943Z,23.80
2023-06-20T23:44:15.491Z,23.73
2023-06-20T23:46:46.085Z,23.67
2023-06-20T23:49:12.798Z,23.64
2023-06-20T23:51:39.464Z,23.61
2023-06-20T23:54:08.653Z,23.58
2023-06-20T23:56:37.878Z,23.54
2023-06-20T23:59:04.922Z,23.38
